Enderlin, North Dakota
Current Conditions -  °F | °C
As of 11:15 AM on Sunday 21 Dec 2014 (Local Time) from KGWR Reporting Station
Scattered Clouds Scattered Clouds  
Wind Chill: 25°   Ceiling: Unl
Heat Index: 34°   Visibility: 10mi
Dew Point: 34°   Wind: 12mph
Humidity: 100%   Direction: 130°SE
Pressure: 29.66"   Gusts: NA
Location:  46.62°N, 97.6°W
Report Text: KGWR 211715Z AUTO 13010KT 10SM FEW006 SCT085 01/01 A2966 RMK A01 P000
Loading
Personal Weather Stations






























Interactive Weather Map New forecast layout! Learn more

10-Day Weather Forecast

Advertisements
Track Severe Weather on mobile